Time;durP1;ratioP1;P1;durP2;ratioP2;P2;SDS_P1;SDS_P2;PMS_P1;PMS_P2;Temp;Humidity;BMP_temperature;BMP_pressure;BME280_temperature;BME280_humidity;BME280_pressure;Samples;Min_cycle;Max_cycle;Signal;HPM_P1;HPM_P2
2021/04/05 00:02:03;;;;;;;;;;;7.90;89.60;;;;;;5024075;28;82905;-74
2021/04/05 00:04:29;;;;;;;;;;;7.90;89.60;;;;;;5025235;28;82434;-74
2021/04/05 00:06:54;;;;;;;;;;;7.90;89.70;;;;;;5024227;28;82684;-73
2021/04/05 00:09:20;;;;;;;;;;;7.90;89.70;;;;;;5023534;28;82089;-74
2021/04/05 00:11:45;;;;;;;;;;;7.90;89.80;;;;;;5022368;28;83046;-74
2021/04/05 00:14:11;;;;;;;;;;;7.90;89.70;;;;;;5021860;28;82134;-74
2021/04/05 00:16:36;;;;;;;;;;;7.80;89.70;;;;;;5020130;28;82086;-74
2021/04/05 00:19:02;;;;;;;;;;;7.80;89.70;;;;;;5020403;28;82213;-74
2021/04/05 00:21:29;;;;;;;;;;;7.80;89.70;;;;;;5021059;28;82678;-74
2021/04/05 00:23:55;;;;;;;;;;;7.80;89.70;;;;;;5026518;28;82127;-73
2021/04/05 00:26:21;;;;;;;;;;;7.80;89.80;;;;;;5022880;28;82596;-74
2021/04/05 00:28:47;;;;;;;;;;;7.80;89.80;;;;;;5021736;28;81363;-74
2021/04/05 00:31:12;;;;;;;;;;;7.80;89.80;;;;;;5019986;28;82106;-74
2021/04/05 00:33:38;;;;;;;;;;;7.80;89.70;;;;;;5021881;28;83554;-74
2021/04/05 00:36:04;;;;;;;;;;;7.80;89.80;;;;;;5024565;28;83040;-74
2021/04/05 00:38:29;;;;;;;;;;;7.70;89.70;;;;;;5023930;28;83255;-74
2021/04/05 00:41:06;;;;;;;;;;;7.70;89.70;;;;;;5023266;28;82109;-74
2021/04/05 00:43:33;;;;;;;;;;;7.70;89.80;;;;;;5023388;28;82487;-74
2021/04/05 00:45:59;;;;;;;;;;;7.70;89.70;;;;;;5024232;28;82328;-74
2021/04/05 00:48:25;;;;;;;;;;;7.70;89.80;;;;;;5023300;28;82129;-74
2021/04/05 00:50:58;;;;;;;;;;;7.70;89.80;;;;;;5022057;28;82089;-74
2021/04/05 00:53:29;;;;;;;;;;;7.60;89.90;;;;;;5020585;28;82324;-74
2021/04/05 00:55:55;;;;;;;;;;;7.70;90.00;;;;;;5020142;28;82077;-74
2021/04/05 00:58:20;;;;;;;;;;;7.70;90.20;;;;;;5022372;28;82107;-74
2021/04/05 01:00:53;;;;;;;;;;;7.60;89.80;;;;;;5022903;28;84113;-74
2021/04/05 01:03:20;;;;;;;;;;;7.60;89.80;;;;;;5021324;28;82103;-74
2021/04/05 01:05:47;;;;;;;;;;;7.60;89.90;;;;;;5025124;28;82118;-74
2021/04/05 01:08:16;;;;;;;;;;;7.60;89.80;;;;;;5023195;28;82203;-74
2021/04/05 01:10:42;;;;;;;;;;;7.60;89.90;;;;;;5020200;28;83691;-75
2021/04/05 01:13:08;;;;;;;;;;;7.60;89.80;;;;;;5022813;28;83125;-75
2021/04/05 01:15:34;;;;;;;;;;;7.60;89.80;;;;;;5024200;28;82121;-74
2021/04/05 01:17:59;;;;;;;;;;;7.60;89.80;;;;;;5024080;28;81557;-74
2021/04/05 01:20:26;;;;;;;;;;;7.60;89.80;;;;;;5021475;28;83438;-75
2021/04/05 01:22:52;;;;;;;;;;;7.60;89.80;;;;;;5024055;28;82104;-74
2021/04/05 01:25:19;;;;;;;;;;;7.60;89.90;;;;;;5023468;28;83117;-75
2021/04/05 01:27:45;;;;;;;;;;;7.50;89.90;;;;;;5024099;28;82588;-74
2021/04/05 01:30:31;;;;;;;;;;;7.50;89.90;;;;;;5022768;28;82818;-74
2021/04/05 01:33:04;;;;;;;;;;;7.50;89.90;;;;;;5022932;28;83747;-74
2021/04/05 01:35:33;;;;;;;;;;;7.50;89.90;;;;;;5022550;28;82140;-74
2021/04/05 01:37:58;;;;;;;;;;;7.50;89.90;;;;;;5020906;28;82822;-75
2021/04/05 01:40:24;;;;;;;;;;;7.50;90.00;;;;;;5019561;28;82387;-74
2021/04/05 01:42:49;;;;;;;;;;;7.50;89.90;;;;;;5021134;28;81396;-74
2021/04/05 01:45:16;;;;;;;;;;;7.50;89.90;;;;;;5023165;28;82063;-74
2021/04/05 01:47:41;;;;;;;;;;;7.40;89.90;;;;;;5021748;28;82320;-75
2021/04/05 01:50:07;;;;;;;;;;;7.50;90.00;;;;;;5023963;28;84324;-75
2021/04/05 01:52:33;;;;;;;;;;;7.40;90.00;;;;;;5020433;28;83047;-75
2021/04/05 01:55:00;;;;;;;;;;;7.40;90.00;;;;;;5021800;28;82118;-75
2021/04/05 01:57:26;;;;;;;;;;;7.40;90.00;;;;;;5019860;28;82830;-75
2021/04/05 01:59:51;;;;;;;;;;;7.40;90.00;;;;;;5021973;28;82563;-75
2021/04/05 02:02:17;;;;;;;;;;;7.40;90.00;;;;;;5020431;28;82193;-75
2021/04/05 02:04:43;;;;;;;;;;;7.40;90.00;;;;;;5022162;28;82556;-74
2021/04/05 02:07:08;;;;;;;;;;;7.30;90.00;;;;;;5022112;28;81379;-75
2021/04/05 02:09:34;;;;;;;;;;;7.30;90.00;;;;;;5021615;28;82870;-75
2021/04/05 02:12:00;;;;;;;;;;;7.30;90.00;;;;;;5023133;28;82083;-74
2021/04/05 02:14:25;;;;;;;;;;;7.30;90.00;;;;;;5021818;28;83970;-74
2021/04/05 02:16:51;;;;;;;;;;;7.30;90.10;;;;;;5019076;28;84446;-75
2021/04/05 02:19:16;;;;;;;;;;;7.30;90.00;;;;;;5019749;28;82668;-75
2021/04/05 02:21:45;;;;;;;;;;;7.30;90.00;;;;;;5019447;28;82983;-75
2021/04/05 02:24:12;;;;;;;;;;;7.30;90.10;;;;;;5022357;28;82330;-75
2021/04/05 02:26:38;;;;;;;;;;;7.30;90.00;;;;;;5020180;28;82664;-75
2021/04/05 02:29:05;;;;;;;;;;;7.30;90.10;;;;;;5019196;28;82156;-75
2021/04/05 02:31:31;;;;;;;;;;;7.30;90.10;;;;;;5022049;28;82081;-75
2021/04/05 02:33:58;;;;;;;;;;;7.20;90.10;;;;;;5023864;28;83089;-75
2021/04/05 02:36:27;;;;;;;;;;;7.20;90.10;;;;;;5022419;28;82298;-75
2021/04/05 02:38:55;;;;;;;;;;;7.30;90.10;;;;;;5021866;28;83728;-76
2021/04/05 02:41:21;;;;;;;;;;;7.20;90.10;;;;;;5025289;28;83686;-75
2021/04/05 02:43:47;;;;;;;;;;;7.30;90.10;;;;;;5024850;28;82425;-75
2021/04/05 02:46:18;;;;;;;;;;;7.20;90.10;;;;;;5025242;28;82544;-75
2021/04/05 02:48:45;;;;;;;;;;;7.20;90.10;;;;;;5025411;28;82086;-76
2021/04/05 02:51:11;;;;;;;;;;;7.20;90.10;;;;;;5025059;28;82544;-75
2021/04/05 02:53:40;;;;;;;;;;;7.20;90.10;;;;;;5024157;28;83074;-75
2021/04/05 02:56:07;;;;;;;;;;;7.20;90.10;;;;;;5027096;28;82290;-75
2021/04/05 02:58:33;;;;;;;;;;;7.20;90.10;;;;;;5021071;28;83263;-75
2021/04/05 03:01:00;;;;;;;;;;;7.20;90.10;;;;;;5026059;28;83406;-75
2021/04/05 03:03:26;;;;;;;;;;;7.20;90.10;;;;;;5025479;28;83068;-75
2021/04/05 03:05:52;;;;;;;;;;;7.20;90.10;;;;;;5025066;28;83476;-75
2021/04/05 03:08:17;;;;;;;;;;;7.10;90.10;;;;;;5022171;28;83583;-75
2021/04/05 03:10:43;;;;;;;;;;;7.10;90.10;;;;;;5022710;28;82796;-76
2021/04/05 03:13:09;;;;;;;;;;;7.10;90.10;;;;;;5023242;28;82803;-75
2021/04/05 03:15:36;;;;;;;;;;;7.10;90.10;;;;;;5024591;28;82093;-75
2021/04/05 03:18:03;;;;;;;;;;;7.10;90.10;;;;;;5020922;28;82558;-75
2021/04/05 03:20:34;;;;;;;;;;;7.10;90.10;;;;;;5024544;28;81488;-75
2021/04/05 03:23:01;;;;;;;;;;;7.10;90.10;;;;;;5022155;28;82116;-76
2021/04/05 03:25:26;;;;;;;;;;;7.10;90.10;;;;;;5025167;28;82917;-76
2021/04/05 03:27:52;;;;;;;;;;;7.00;90.10;;;;;;5021160;28;84008;-75
2021/04/05 03:30:21;;;;;;;;;;;7.00;90.10;;;;;;5021261;28;84156;-76
2021/04/05 03:32:47;;;;;;;;;;;7.00;90.10;;;;;;5022235;28;82664;-76
2021/04/05 03:35:17;;;;;;;;;;;7.00;90.20;;;;;;5021221;28;83692;-75
2021/04/05 03:37:43;;;;;;;;;;;7.00;90.20;;;;;;5024219;28;82940;-75
2021/04/05 03:40:09;;;;;;;;;;;7.00;90.20;;;;;;5021309;28;82140;-75
2021/04/05 03:42:36;;;;;;;;;;;7.00;90.20;;;;;;5022601;28;82179;-75
2021/04/05 03:45:05;;;;;;;;;;;7.00;90.20;;;;;;5021761;28;81505;-75
2021/04/05 03:47:49;;;;;;;;;;;7.00;90.20;;;;;;5023046;28;82139;-76
2021/04/05 03:50:27;;;;;;;;;;;7.00;90.20;;;;;;5023919;28;82414;-76
2021/04/05 03:53:07;;;;;;;;;;;7.00;90.20;;;;;;5020796;28;83557;-76
2021/04/05 03:55:33;;;;;;;;;;;7.00;90.20;;;;;;5024111;28;82099;-75
2021/04/05 03:58:00;;;;;;;;;;;6.90;90.20;;;;;;5022700;28;82383;-76
2021/04/05 04:00:28;;;;;;;;;;;7.00;90.20;;;;;;5027251;28;82358;-76
2021/04/05 04:02:54;;;;;;;;;;;6.90;90.20;;;;;;5023532;28;82619;-75
2021/04/05 04:05:37;;;;;;;;;;;6.90;90.20;;;;;;5023279;28;83014;-75
2021/04/05 04:08:13;;;;;;;;;;;6.90;90.20;;;;;;5022243;28;82130;-76
2021/04/05 04:10:39;;;;;;;;;;;6.90;90.20;;;;;;5023979;28;81997;-75
2021/04/05 04:13:07;;;;;;;;;;;6.90;90.20;;;;;;5022810;28;82100;-75
2021/04/05 04:15:34;;;;;;;;;;;6.90;90.20;;;;;;5023925;28;82289;-75
2021/04/05 04:18:01;;;;;;;;;;;6.90;90.20;;;;;;5023329;28;83031;-75
2021/04/05 04:20:28;;;;;;;;;;;6.90;90.20;;;;;;5021780;28;82637;-76
2021/04/05 04:22:54;;;;;;;;;;;6.80;90.20;;;;;;5023254;28;82139;-75
2021/04/05 04:25:20;;;;;;;;;;;6.80;90.20;;;;;;5021119;28;83008;-75
2021/04/05 04:27:45;;;;;;;;;;;6.80;90.20;;;;;;5022422;28;82095;-75
2021/04/05 04:30:16;;;;;;;;;;;6.80;90.20;;;;;;5022486;28;82334;-75
2021/04/05 04:32:41;;;;;;;;;;;6.80;90.20;;;;;;5023767;28;83804;-75
2021/04/05 04:35:09;;;;;;;;;;;6.80;90.20;;;;;;5024335;28;82890;-75
2021/04/05 04:37:38;;;;;;;;;;;6.80;90.20;;;;;;5022724;28;82209;-75
2021/04/05 04:40:04;;;;;;;;;;;6.80;90.20;;;;;;5022786;28;83501;-75
2021/04/05 04:42:30;;;;;;;;;;;6.80;90.20;;;;;;5023856;28;83350;-76
2021/04/05 04:44:55;;;;;;;;;;;6.80;90.20;;;;;;5022902;28;83307;-75
2021/04/05 04:47:21;;;;;;;;;;;6.80;90.20;;;;;;5020450;28;83479;-75
2021/04/05 04:49:46;;;;;;;;;;;6.80;90.20;;;;;;5019672;28;82375;-75
2021/04/05 04:52:12;;;;;;;;;;;6.70;90.10;;;;;;5021306;28;82284;-75
2021/04/05 04:54:37;;;;;;;;;;;6.70;90.10;;;;;;5021452;28;82172;-75
2021/04/05 04:57:03;;;;;;;;;;;6.70;90.10;;;;;;5022991;28;82090;-75
2021/04/05 04:59:29;;;;;;;;;;;6.70;90.20;;;;;;5022962;28;82499;-76
2021/04/05 05:01:55;;;;;;;;;;;6.70;90.20;;;;;;5019463;28;82089;-75
2021/04/05 05:04:26;;;;;;;;;;;6.70;90.20;;;;;;5026639;28;82147;-75
2021/04/05 05:06:53;;;;;;;;;;;6.70;90.20;;;;;;5023255;28;83068;-75
2021/04/05 05:09:18;;;;;;;;;;;6.70;90.20;;;;;;5023661;28;83227;-75
2021/04/05 05:11:44;;;;;;;;;;;6.70;90.20;;;;;;5022780;28;83465;-75
2021/04/05 05:14:11;;;;;;;;;;;6.70;90.20;;;;;;5023269;28;82117;-75
2021/04/05 05:16:37;;;;;;;;;;;6.70;90.20;;;;;;5020276;28;82119;-75
2021/04/05 05:19:03;;;;;;;;;;;6.70;90.20;;;;;;5020123;28;82594;-75
2021/04/05 05:21:44;;;;;;;;;;;6.70;90.20;;;;;;5019427;28;82089;-76
2021/04/05 05:24:12;;;;;;;;;;;6.70;90.20;;;;;;5021242;28;82473;-76
2021/04/05 05:26:38;;;;;;;;;;;6.70;90.20;;;;;;5023601;28;83565;-75
2021/04/05 05:29:06;;;;;;;;;;;6.70;90.20;;;;;;5020048;28;83042;-76
2021/04/05 05:31:33;;;;;;;;;;;6.60;90.20;;;;;;5021904;28;84095;-76
2021/04/05 05:34:00;;;;;;;;;;;6.60;90.20;;;;;;5022907;28;82085;-76
2021/04/05 05:36:25;;;;;;;;;;;6.60;90.20;;;;;;5020231;28;82148;-76
2021/04/05 05:38:51;;;;;;;;;;;6.60;90.20;;;;;;5019496;28;82541;-76
2021/04/05 05:41:49;;;;;;;;;;;6.60;90.20;;;;;;5021319;28;82045;-76
2021/04/05 05:44:23;;;;;;;;;;;6.60;90.20;;;;;;4998705;28;82280;-76
2021/04/05 05:46:50;;;;;;;;;;;6.60;90.20;;;;;;5020424;28;82700;-75
2021/04/05 05:49:25;;;;;;;;;;;6.60;90.20;;;;;;5024016;28;81997;-76
2021/04/05 05:51:56;;;;;;;;;;;6.60;90.20;;;;;;5021104;28;82897;-75
2021/04/05 05:54:34;;;;;;;;;;;6.60;90.20;;;;;;5020294;28;82096;-75
2021/04/05 05:57:09;;;;;;;;;;;6.60;90.20;;;;;;5021739;28;84075;-75
2021/04/05 05:59:54;;;;;;;;;;;6.60;90.20;;;;;;5020108;28;83158;-75
2021/04/05 06:02:23;;;;;;;;;;;6.60;90.20;;;;;;5013691;28;83523;-75
2021/04/05 06:05:09;;;;;;;;;;;6.60;90.20;;;;;;5020265;28;82113;-75
2021/04/05 06:07:53;;;;;;;;;;;6.60;90.20;;;;;;5020879;28;83198;-75
2021/04/05 06:10:30;;;;;;;;;;;6.50;90.20;;;;;;5023553;28;82736;-75
2021/04/05 06:13:02;;;;;;;;;;;6.50;90.30;;;;;;5023949;28;82124;-75
2021/04/05 06:15:29;;;;;;;;;;;6.50;90.30;;;;;;5024120;28;81380;-75
2021/04/05 06:17:57;;;;;;;;;;;6.50;90.30;;;;;;5026064;28;83346;-75
2021/04/05 06:20:27;;;;;;;;;;;6.50;90.30;;;;;;5022914;28;83585;-75
2021/04/05 06:23:12;;;;;;;;;;;6.50;90.30;;;;;;5025109;28;83074;-74
2021/04/05 06:25:52;;;;;;;;;;;6.50;90.30;;;;;;5025973;28;82982;-75
2021/04/05 06:28:25;;;;;;;;;;;6.50;90.30;;;;;;5022754;28;82581;-75
2021/04/05 06:31:09;;;;;;;;;;;6.50;90.30;;;;;;5026946;28;83612;-75
2021/04/05 06:33:36;;;;;;;;;;;6.50;90.30;;;;;;5024348;28;82383;-75
2021/04/05 06:36:07;;;;;;;;;;;6.50;90.20;;;;;;5025893;28;83143;-75
2021/04/05 06:38:37;;;;;;;;;;;6.50;90.30;;;;;;5023906;28;82109;-75
2021/04/05 06:41:26;;;;;;;;;;;6.50;90.30;;;;;;5026024;28;81359;-75
2021/04/05 06:44:11;;;;;;;;;;;6.50;90.30;;;;;;5015941;28;82157;-75
2021/04/05 06:46:49;;;;;;;;;;;6.50;90.20;;;;;;5022632;28;83102;-75
2021/04/05 06:49:20;;;;;;;;;;;6.50;90.20;;;;;;5025271;28;84154;-75
2021/04/05 06:52:00;;;;;;;;;;;6.50;90.30;;;;;;5025058;28;83732;-74
2021/04/05 06:54:29;;;;;;;;;;;6.50;90.30;;;;;;5023895;28;82235;-74
2021/04/05 06:56:55;;;;;;;;;;;6.50;90.30;;;;;;5021087;28;84677;-75
2021/04/05 06:59:21;;;;;;;;;;;6.50;90.30;;;;;;5026714;28;82147;-74
2021/04/05 07:02:05;;;;;;;;;;;6.50;90.30;;;;;;5025990;28;83237;-75
2021/04/05 07:04:50;;;;;;;;;;;6.50;90.30;;;;;;5024329;28;82083;-74
2021/04/05 07:07:23;;;;;;;;;;;6.50;90.30;;;;;;5022906;28;82152;-74
2021/04/05 07:09:53;;;;;;;;;;;6.50;90.30;;;;;;5024376;28;82998;-74
2021/04/05 07:12:18;;;;;;;;;;;6.50;90.30;;;;;;5025481;28;82199;-75
2021/04/05 07:14:49;;;;;;;;;;;6.50;90.30;;;;;;5025418;28;83136;-75
2021/04/05 07:17:18;;;;;;;;;;;6.50;90.30;;;;;;5024966;28;82964;-74
2021/04/05 07:19:56;;;;;;;;;;;6.50;90.30;;;;;;5024399;28;82066;-74
2021/04/05 07:22:39;;;;;;;;;;;6.50;90.30;;;;;;5022253;28;82660;-74
2021/04/05 07:25:20;;;;;;;;;;;6.50;90.30;;;;;;5024685;28;82080;-74
2021/04/05 07:28:05;;;;;;;;;;;6.40;90.30;;;;;;5023815;28;82135;-74
2021/04/05 07:30:36;;;;;;;;;;;6.50;90.30;;;;;;5023605;28;82793;-74
2021/04/05 07:33:09;;;;;;;;;;;6.40;90.30;;;;;;5022240;28;81413;-74
2021/04/05 07:35:54;;;;;;;;;;;6.40;90.30;;;;;;5024545;28;82080;-74
2021/04/05 07:38:31;;;;;;;;;;;6.40;90.40;;;;;;5021791;28;82442;-74
2021/04/05 07:40:57;;;;;;;;;;;6.50;90.40;;;;;;5025090;28;84724;-74
2021/04/05 07:43:38;;;;;;;;;;;6.40;90.30;;;;;;5027178;28;83168;-74
2021/04/05 07:46:13;;;;;;;;;;;6.50;90.30;;;;;;5024499;28;82127;-74
2021/04/05 07:48:41;;;;;;;;;;;6.40;90.30;;;;;;5025731;28;82083;-74
2021/04/05 07:51:22;;;;;;;;;;;6.40;90.40;;;;;;5023486;28;82550;-74
2021/04/05 07:53:52;;;;;;;;;;;6.40;90.40;;;;;;5024330;28;82069;-74
2021/04/05 07:56:17;;;;;;;;;;;6.40;90.40;;;;;;5023374;28;82573;-74
2021/04/05 07:59:01;;;;;;;;;;;6.40;90.40;;;;;;5021284;28;81932;-74
2021/04/05 08:01:39;;;;;;;;;;;6.40;90.40;;;;;;5024236;28;82113;-74
2021/04/05 08:04:08;;;;;;;;;;;6.40;90.40;;;;;;5023779;28;82140;-73
2021/04/05 08:06:50;;;;;;;;;;;6.40;90.40;;;;;;5027273;28;83638;-73
2021/04/05 08:09:17;;;;;;;;;;;6.50;90.40;;;;;;5022295;28;82158;-74
2021/04/05 08:11:48;;;;;;;;;;;6.40;90.40;;;;;;5023027;28;83618;-74
2021/04/05 08:14:23;;;;;;;;;;;6.40;90.40;;;;;;5024655;28;82246;-74
2021/04/05 08:17:01;;;;;;;;;;;6.40;90.50;;;;;;5024319;28;82611;-74
2021/04/05 08:19:32;;;;;;;;;;;6.40;90.50;;;;;;5023606;28;82943;-74
2021/04/05 08:22:01;;;;;;;;;;;6.40;90.40;;;;;;5021850;28;82902;-74
2021/04/05 08:24:35;;;;;;;;;;;6.40;90.70;;;;;;5021877;28;81404;-74
2021/04/05 08:27:16;;;;;;;;;;;6.40;90.40;;;;;;5023340;28;83243;-74
2021/04/05 08:29:44;;;;;;;;;;;6.50;90.40;;;;;;5025795;28;82078;-74
2021/04/05 08:32:09;;;;;;;;;;;6.50;90.40;;;;;;5019803;28;83936;-74
2021/04/05 08:34:50;;;;;;;;;;;6.50;90.40;;;;;;5021958;28;82097;-74
2021/04/05 08:37:20;;;;;;;;;;;6.50;90.40;;;;;;5021350;28;82286;-74
2021/04/05 08:40:03;;;;;;;;;;;6.50;90.40;;;;;;5023357;28;83147;-74
2021/04/05 08:42:32;;;;;;;;;;;6.40;90.50;;;;;;5022448;28;82146;-74
2021/04/05 08:45:07;;;;;;;;;;;6.40;90.40;;;;;;5023844;28;82374;-74
2021/04/05 08:47:33;;;;;;;;;;;6.50;90.40;;;;;;5024170;28;83592;-74
2021/04/05 08:50:03;;;;;;;;;;;6.50;90.40;;;;;;5024746;28;81448;-74
2021/04/05 08:52:31;;;;;;;;;;;6.50;90.50;;;;;;5024141;28;82090;-74
2021/04/05 08:54:59;;;;;;;;;;;6.50;90.40;;;;;;5022154;28;82106;-74
2021/04/05 08:57:27;;;;;;;;;;;6.50;90.50;;;;;;5023002;28;83048;-74
2021/04/05 08:59:53;;;;;;;;;;;6.50;90.40;;;;;;5000540;28;83100;-74
2021/04/05 09:02:18;;;;;;;;;;;6.50;90.40;;;;;;5000007;28;82222;-74
2021/04/05 09:04:44;;;;;;;;;;;6.50;90.40;;;;;;5001023;28;82147;-74
2021/04/05 09:07:28;;;;;;;;;;;6.50;90.40;;;;;;5000811;28;83454;-74
2021/04/05 09:09:56;;;;;;;;;;;6.50;90.50;;;;;;5004145;28;82136;-74
2021/04/05 09:12:22;;;;;;;;;;;6.50;90.70;;;;;;5000352;28;82421;-74
2021/04/05 09:15:07;;;;;;;;;;;6.50;90.50;;;;;;5002378;28;81799;-74
2021/04/05 09:17:48;;;;;;;;;;;6.50;90.40;;;;;;4989664;28;82171;-75
2021/04/05 09:20:38;;;;;;;;;;;6.50;90.40;;;;;;5001505;28;83404;-75
2021/04/05 09:23:16;;;;;;;;;;;6.50;90.40;;;;;;5002092;28;83092;-75
2021/04/05 09:25:57;;;;;;;;;;;6.50;90.40;;;;;;4999485;28;82767;-75
2021/04/05 09:28:22;;;;;;;;;;;6.50;90.40;;;;;;5002738;28;82751;-75
2021/04/05 09:30:51;;;;;;;;;;;6.50;90.40;;;;;;5000582;28;82085;-75
2021/04/05 09:33:35;;;;;;;;;;;6.50;90.40;;;;;;5002601;28;83683;-74
2021/04/05 09:36:19;;;;;;;;;;;6.50;90.50;;;;;;5003025;28;82516;-75
2021/04/05 09:38:56;;;;;;;;;;;6.50;90.50;;;;;;5002026;28;82179;-74
2021/04/05 09:41:31;;;;;;;;;;;6.60;90.50;;;;;;5001319;28;82205;-75
2021/04/05 09:44:15;;;;;;;;;;;6.50;90.40;;;;;;5003123;28;83843;-75
2021/04/05 09:46:43;;;;;;;;;;;6.60;90.80;;;;;;4999129;28;82523;-75
2021/04/05 09:49:21;;;;;;;;;;;6.60;90.50;;;;;;5002330;28;84065;-75
2021/04/05 09:52:05;;;;;;;;;;;6.60;90.50;;;;;;5003021;28;83632;-75
2021/04/05 09:54:30;;;;;;;;;;;6.50;90.40;;;;;;5003700;28;82136;-75
2021/04/05 09:56:59;;;;;;;;;;;6.60;90.50;;;;;;5005086;28;82573;-74
2021/04/05 09:59:34;;;;;;;;;;;6.60;90.50;;;;;;5024870;28;82794;-75
2021/04/05 10:02:00;;;;;;;;;;;6.50;90.50;;;;;;5022653;28;83153;-75
2021/04/05 10:04:27;;;;;;;;;;;6.60;90.60;;;;;;5023192;28;82429;-75
2021/04/05 10:06:53;;;;;;;;;;;6.60;90.50;;;;;;5025651;28;82472;-75
2021/04/05 10:09:20;;;;;;;;;;;6.60;90.50;;;;;;5023603;28;83282;-74
2021/04/05 10:11:47;;;;;;;;;;;6.60;90.60;;;;;;5023231;28;82143;-74
2021/04/05 10:14:18;;;;;;;;;;;6.60;90.60;;;;;;5021198;28;83239;-74
2021/04/05 10:16:45;;;;;;;;;;;6.60;90.60;;;;;;5022354;28;83083;-74
2021/04/05 10:19:11;;;;;;;;;;;6.60;90.60;;;;;;5023658;28;82100;-75
2021/04/05 10:21:41;;;;;;;;;;;6.60;90.50;;;;;;5025523;28;82116;-74
2021/04/05 10:24:08;;;;;;;;;;;6.60;90.60;;;;;;5024075;28;82136;-74
2021/04/05 10:26:38;;;;;;;;;;;6.60;90.60;;;;;;5022898;28;82473;-75
2021/04/05 10:29:08;;;;;;;;;;;6.60;90.60;;;;;;5018982;28;87601;-75
2021/04/05 10:31:34;;;;;;;;;;;6.70;90.60;;;;;;5020184;28;86404;-74
2021/04/05 10:34:02;;;;;;;;;;;6.60;90.60;;;;;;5020811;28;87241;-74
2021/04/05 10:36:28;;;;;;;;;;;6.70;90.90;;;;;;5018261;28;87906;-75
2021/04/05 10:38:54;;;;;;;;;;;6.70;90.60;;;;;;5019741;28;88253;-74
2021/04/05 10:41:21;;;;;;;;;;;6.70;90.60;;;;;;5022307;28;88617;-75
2021/04/05 10:43:55;;;;;;;;;;;6.70;90.70;;;;;;5023813;28;87145;-75
2021/04/05 10:46:31;;;;;;;;;;;6.70;90.60;;;;;;5021411;28;87888;-75
2021/04/05 10:49:12;;;;;;;;;;;6.70;90.60;;;;;;5021114;28;87865;-74
2021/04/05 10:51:57;;;;;;;;;;;6.70;90.60;;;;;;5021332;28;87265;-74
2021/04/05 10:54:32;;;;;;;;;;;6.70;90.70;;;;;;5022397;28;87450;-75
2021/04/05 10:57:02;;;;;;;;;;;6.70;90.60;;;;;;5023284;28;87249;-74
2021/04/05 10:59:51;;;;;;;;;;;6.70;90.60;;;;;;5019895;28;87462;-75
2021/04/05 11:02:29;;;;;;;;;;;6.70;90.60;;;;;;5014363;28;87474;-74
2021/04/05 11:04:59;;;;;;;;;;;6.70;90.70;;;;;;5020535;28;89056;-74
2021/04/05 11:07:25;;;;;;;;;;;6.70;90.70;;;;;;5025000;28;87175;-74
2021/04/05 11:09:53;;;;;;;;;;;6.70;90.60;;;;;;5021077;28;87945;-75
2021/04/05 11:12:20;;;;;;;;;;;6.80;90.70;;;;;;5018782;28;87158;-75
2021/04/05 11:14:46;;;;;;;;;;;6.80;90.70;;;;;;5019744;28;87552;-75
2021/04/05 11:17:13;;;;;;;;;;;6.80;90.70;;;;;;5018851;28;88168;-75
2021/04/05 11:19:48;;;;;;;;;;;6.80;90.80;;;;;;5018007;28;88722;-74
2021/04/05 11:22:17;;;;;;;;;;;6.80;90.70;;;;;;5019396;28;87752;-74
2021/04/05 11:24:44;;;;;;;;;;;6.80;90.80;;;;;;5019042;28;88085;-74
2021/04/05 11:27:11;;;;;;;;;;;6.80;90.70;;;;;;5019077;28;87140;-75
2021/04/05 11:29:41;;;;;;;;;;;6.80;90.80;;;;;;5024294;28;88095;-75
2021/04/05 11:32:09;;;;;;;;;;;6.80;90.80;;;;;;5019066;28;87203;-75
2021/04/05 11:34:37;;;;;;;;;;;6.80;90.80;;;;;;5021175;28;87196;-75
2021/04/05 11:37:04;;;;;;;;;;;6.90;90.80;;;;;;5017920;28;87879;-74
2021/04/05 11:39:31;;;;;;;;;;;6.90;90.80;;;;;;5022432;28;88409;-75
2021/04/05 11:41:57;;;;;;;;;;;6.90;90.70;;;;;;5020533;28;87205;-74
2021/04/05 11:44:27;;;;;;;;;;;6.90;90.80;;;;;;5019857;28;88395;-74
2021/04/05 11:46:53;;;;;;;;;;;6.90;90.80;;;;;;5022069;28;86731;-74
2021/04/05 11:49:19;;;;;;;;;;;7.00;90.80;;;;;;5022163;28;87402;-75
2021/04/05 11:51:46;;;;;;;;;;;7.00;90.80;;;;;;5017346;28;87263;-74
2021/04/05 11:54:23;;;;;;;;;;;7.00;90.90;;;;;;5020630;28;88117;-74
2021/04/05 11:56:49;;;;;;;;;;;7.00;90.70;;;;;;5021329;28;87875;-74
2021/04/05 11:59:15;;;;;;;;;;;7.00;90.80;;;;;;5020318;28;87117;-74
2021/04/05 12:02:00;;;;;;;;;;;7.00;90.80;;;;;;5021126;28;87148;-74
2021/04/05 12:04:47;;;;;;;;;;;7.00;90.80;;;;;;5021406;28;88160;-75
2021/04/05 12:07:13;;;;;;;;;;;7.00;90.80;;;;;;5020014;28;87101;-74
2021/04/05 12:09:39;;;;;;;;;;;7.00;90.90;;;;;;5020215;28;87105;-74
2021/04/05 12:12:06;;;;;;;;;;;7.00;90.90;;;;;;5024026;28;87940;-74
2021/04/05 12:14:32;;;;;;;;;;;7.00;90.80;;;;;;5019310;28;87125;-74
2021/04/05 12:16:59;;;;;;;;;;;7.00;90.90;;;;;;5018363;28;88164;-74
2021/04/05 12:19:44;;;;;;;;;;;7.10;90.80;;;;;;5017071;28;88139;-74
2021/04/05 12:22:10;;;;;;;;;;;7.10;90.90;;;;;;5018307;28;87954;-75
2021/04/05 12:24:39;;;;;;;;;;;7.10;90.90;;;;;;5016541;28;88033;-74
2021/04/05 12:27:06;;;;;;;;;;;7.10;90.90;;;;;;5017945;28;87133;-74
2021/04/05 12:29:32;;;;;;;;;;;7.10;90.90;;;;;;5021371;28;87140;-74
2021/04/05 12:31:58;;;;;;;;;;;7.10;90.90;;;;;;5019494;28;88300;-74
2021/04/05 12:34:29;;;;;;;;;;;7.10;90.90;;;;;;5022391;28;87126;-74
2021/04/05 12:36:56;;;;;;;;;;;7.20;90.90;;;;;;5020566;28;87106;-74
2021/04/05 12:39:27;;;;;;;;;;;7.10;90.90;;;;;;5020410;28;87264;-74
2021/04/05 12:41:52;;;;;;;;;;;7.20;90.90;;;;;;5019447;28;87655;-74
2021/04/05 12:44:26;;;;;;;;;;;7.20;90.90;;;;;;5017720;28;88176;-74
2021/04/05 12:46:52;;;;;;;;;;;7.20;90.90;;;;;;5020388;28;87107;-74
2021/04/05 12:49:20;;;;;;;;;;;7.20;90.90;;;;;;5019597;28;87118;-74
2021/04/05 12:51:48;;;;;;;;;;;7.20;91.00;;;;;;5016130;28;88164;-74
2021/04/05 12:54:14;;;;;;;;;;;7.20;91.00;;;;;;5018624;28;87098;-74
2021/04/05 12:56:40;;;;;;;;;;;7.30;91.00;;;;;;5021742;28;87626;-74
2021/04/05 12:59:05;;;;;;;;;;;7.30;90.90;;;;;;5019330;28;87143;-74
2021/04/05 13:01:36;;;;;;;;;;;7.30;91.00;;;;;;5021302;28;87420;-74
2021/04/05 13:04:03;;;;;;;;;;;7.30;91.00;;;;;;5018601;28;88518;-74
2021/04/05 13:06:35;;;;;;;;;;;7.40;91.00;;;;;;5020036;28;88652;-74
2021/04/05 13:09:03;;;;;;;;;;;7.40;91.00;;;;;;5020543;28;88284;-75
2021/04/05 13:11:35;;;;;;;;;;;7.40;91.00;;;;;;5017009;28;88230;-74
2021/04/05 13:14:03;;;;;;;;;;;7.40;91.00;;;;;;5020529;28;88229;-74
2021/04/05 13:16:34;;;;;;;;;;;7.40;91.00;;;;;;5018638;28;87239;-74
2021/04/05 13:19:01;;;;;;;;;;;7.40;91.00;;;;;;5021145;28;87200;-74
2021/04/05 13:21:33;;;;;;;;;;;7.50;91.00;;;;;;5017526;28;87148;-74
2021/04/05 13:23:59;;;;;;;;;;;7.50;91.00;;;;;;5017256;28;87963;-74
2021/04/05 13:26:39;;;;;;;;;;;7.50;91.00;;;;;;5019074;28;86515;-74
2021/04/05 13:29:06;;;;;;;;;;;7.50;91.00;;;;;;5020127;28;87135;-74
2021/04/05 13:31:32;;;;;;;;;;;7.50;91.00;;;;;;5019397;28;87662;-74
2021/04/05 13:33:58;;;;;;;;;;;7.60;90.90;;;;;;5018466;28;88170;-74
2021/04/05 13:36:24;;;;;;;;;;;7.60;90.90;;;;;;5018691;28;87864;-74
2021/04/05 13:38:58;;;;;;;;;;;7.60;90.90;;;;;;5017486;28;87446;-75
2021/04/05 13:41:30;;;;;;;;;;;7.60;90.90;;;;;;5021654;28;87197;-75
2021/04/05 13:43:56;;;;;;;;;;;7.70;91.00;;;;;;5018113;28;88043;-74
2021/04/05 13:46:23;;;;;;;;;;;7.70;90.90;;;;;;5019693;28;88288;-74
2021/04/05 13:48:55;;;;;;;;;;;7.70;90.90;;;;;;5019076;28;87513;-74
2021/04/05 13:51:22;;;;;;;;;;;7.70;90.90;;;;;;5020778;28;87420;-74
2021/04/05 13:53:52;;;;;;;;;;;7.80;91.00;;;;;;5019635;28;87145;-74
2021/04/05 13:56:23;;;;;;;;;;;7.80;90.90;;;;;;5018467;28;88639;-74
2021/04/05 13:58:51;;;;;;;;;;;7.80;90.90;;;;;;5019396;28;89112;-74
2021/04/05 14:01:19;;;;;;;;;;;7.80;90.90;;;;;;5019779;28;87122;-74
2021/04/05 14:03:47;;;;;;;;;;;7.90;90.80;;;;;;5019728;28;88122;-74
2021/04/05 14:06:17;;;;;;;;;;;7.90;90.90;;;;;;5016818;28;87245;-74
2021/04/05 14:08:43;;;;;;;;;;;7.90;90.80;;;;;;5016296;28;87143;-74
2021/04/05 14:11:11;;;;;;;;;;;8.00;90.80;;;;;;5015381;28;88011;-74
2021/04/05 14:13:36;;;;;;;;;;;8.00;90.90;;;;;;5019697;28;87257;-74
2021/04/05 14:16:12;;;;;;;;;;;8.00;90.80;;;;;;5019352;28;87791;-75
2021/04/05 14:18:39;;;;;;;;;;;8.00;90.80;;;;;;5019875;28;88116;-74
2021/04/05 14:21:06;;;;;;;;;;;8.10;90.80;;;;;;5019118;28;87162;-74
2021/04/05 14:23:33;;;;;;;;;;;8.20;90.70;;;;;;5020243;28;88182;-74
2021/04/05 14:26:04;;;;;;;;;;;8.20;90.70;;;;;;5015693;28;87137;-75
2021/04/05 14:28:30;;;;;;;;;;;8.20;90.70;;;;;;5015725;28;87168;-74
2021/04/05 14:31:16;;;;;;;;;;;8.30;90.60;;;;;;5014577;28;88196;-74
2021/04/05 14:33:47;;;;;;;;;;;8.30;90.70;;;;;;5018123;28;88662;-74
2021/04/05 14:36:15;;;;;;;;;;;8.40;90.60;;;;;;5020064;28;87200;-74
2021/04/05 14:38:42;;;;;;;;;;;8.40;90.60;;;;;;5019024;28;88768;-74
2021/04/05 14:41:07;;;;;;;;;;;8.40;90.60;;;;;;5023904;28;88030;-74
2021/04/05 14:43:53;;;;;;;;;;;8.40;90.60;;;;;;5023057;28;87174;-74
2021/04/05 14:46:19;;;;;;;;;;;8.40;90.70;;;;;;5025752;28;89083;-74
2021/04/05 14:48:46;;;;;;;;;;;8.50;90.70;;;;;;5022596;28;88077;-74